Flight Track Log - Related Links

Times and Time Zones

All times are in EDT time to prevent confusion due to time zone crossing. See the N693PD flight status page for this flight to view local times or setup timezone preferences in your user account.

Time Position Orientation Groundspeed Altitude Reporting Facility
EDT Latitude Longitude Course Direction KTS MPH feet Rate Location/Type
Sat 08:49:51 AM 33.9667 -84.5000 176° South 165 190 4,800  Level Atlanta TRACON
Sat 08:51:00 AM 33.9040 -84.5470 212° Southwest  Level FlightAware
Sat 08:51:51 AM 33.8667 -84.4167 212° Southwest 243 280 5,100  Level Atlanta TRACON
Sat 08:52:51 AM 33.8000 -84.4000 168° South 240 276 5,100  Level Atlanta TRACON
Sat 08:54:00 AM 33.6729 -84.3808 160° South  Level Estimated
Sat 08:54:46 AM 33.6833 -84.4000 180° South 237 273 5,100  Level Atlanta TRACON
Sat 08:55:00 AM 33.6089 -84.3755 176° South  Level FlightAware
Sat 08:55:52 AM 33.6000 -84.4000 180° South 259 298 5,000  Level Atlanta TRACON
Sat 08:56:51 AM 33.5333 -84.4000 180° South 237 273 5,100 504 Climbing Atlanta TRACON
Sat 08:57:51 AM 33.4833 -84.4000 180° South 219 252 6,000 500 Climbing Atlanta TRACON
Sat 08:58:51 AM 33.4167 -84.3833 168° South 240 276 6,100 550 Climbing Atlanta TRACON
Sat 08:59:51 AM 33.3500 -84.3500 157° South 225 259 7,100 903 Climbing Atlanta TRACON
Sat 09:00:44 AM 33.3097 -84.3347 162° South 219 252 7,800 903 Climbing Atlanta Center
Sat 09:01:44 AM 33.2514 -84.3094 160° South 219 252 8,800 1,000 Climbing Atlanta Center
Sat 09:02:44 AM 33.1928 -84.2847 161° South 224 258 9,800 1,000 Climbing Atlanta Center
Sat 09:03:44 AM 33.1325 -84.2572 159° South 231 266 10,800 650 Climbing Atlanta Center
Sat 09:04:44 AM 33.0678 -84.2347 164° South 231 266 11,100 150 Climbing Atlanta Center
Sat 09:05:44 AM 32.9947 -84.2022 160° South 250 288 11,100  Level Atlanta Center
Sat 09:06:44 AM 32.9322 -84.1675 155° Southeast 256 295 11,100 300 Level Atlanta Center
Sat 09:07:44 AM 32.8633 -84.1428 163° South 262 302 11,700 750 Climbing Atlanta Center
Sat 09:08:44 AM 32.7986 -84.1178 162° South 262 302 12,600 950 Climbing Atlanta Center
Sat 09:09:44 AM 32.7381 -84.0906 159° South 249 287 13,600 1,000 Climbing Atlanta Center
Sat 09:10:44 AM 32.6797 -84.0683 162° South 239 275 14,600 1,000 Climbing Atlanta Center
Sat 09:11:44 AM 32.6211 -84.0439 161° South 229 264 15,600 950 Climbing Atlanta Center
Sat 09:12:44 AM 32.5647 -84.0217 162° South 224 258 16,500 950 Climbing Atlanta Center
Sat 09:13:44 AM 32.5083 -83.9944 158° South 224 258 17,500 850 Climbing Atlanta Center
Sat 09:14:44 AM 32.4542 -83.9725 161° South 218 251 18,200 920 Climbing Atlanta Center
Sat 09:16:27 AM 32.3544 -83.9303 160° South 216 249 20,000 1,031 Climbing Jacksonville Center
Sat 09:17:27 AM 32.3003 -83.9078 161° South 216 249 21,000 950 Climbing Jacksonville Center
Sat 09:18:27 AM 32.2461 -83.8850 160° South 206 237 21,900 900 Climbing Jacksonville Center
Sat 09:19:27 AM 32.1919 -83.8597 158° South 206 237 22,800 550 Climbing Jacksonville Center
Sat 09:20:27 AM 32.1339 -83.8372 162° South 212 244 23,000 100 Climbing Jacksonville Center
Sat 09:21:27 AM 32.0692 -83.8094 160° South 231 266 23,000  Level Jacksonville Center
Sat 09:22:27 AM 31.9986 -83.7794 160° South 253 291 23,000  Level Jacksonville Center
Sat 09:23:27 AM 31.9297 -83.7517 161° South 265 305 23,000  Level Jacksonville Center
Sat 09:24:07 AM 31.8797 -83.7342 163° South 269 310 23,000  Level Jacksonville Center
Sat 09:24:27 AM 31.8672 -83.7219 140° Southeast 265 305 23,000  Level Jacksonville Center
Sat 09:25:19 AM 31.7944 -83.6967 164° South 270 311 23,000  Level Jacksonville Center
Sat 09:26:20 AM 31.7278 -83.6669 159° South 269 310 23,000  Level Jacksonville Center
Sat 09:27:21 AM 31.6528 -83.6419 164° South 271 312 23,000  Level Jacksonville Center
Sat 09:28:21 AM 31.5778 -83.6072 158° South 273 314 23,000  Level Jacksonville Center
Sat 09:29:27 AM 31.5069 -83.5772 160° South 276 318 23,000  Level Jacksonville Center
Sat 09:30:22 AM 31.4319 -83.5475 161° South 274 315 23,000  Level Jacksonville Center
Sat 09:31:27 AM 31.3633 -83.5178 160° South 276 318 23,000  Level Jacksonville Center
Sat 09:32:24 AM 31.2883 -83.4906 163° South 275 316 23,000  Level Jacksonville Center
Sat 09:33:24 AM 31.2172 -83.4586 159° South 276 318 23,000  Level Jacksonville Center
Sat 09:34:25 AM 31.1403 -83.4289 162° South 276 318 23,000  Level Jacksonville Center
Sat 09:35:25 AM 31.0736 -83.3994 159° South 273 314 23,000  Level Jacksonville Center
Sat 09:36:26 AM 30.9986 -83.3725 163° South 272 313 23,000  Level Jacksonville Center
Sat 09:38:15 AM 30.8733 -83.3211 161° South 293 337 23,000  Level Jacksonville Center
Sat 09:39:15 AM 30.8044 -83.2917 160° South 287 330 23,000  Level Jacksonville Center
Sat 09:40:15 AM 30.7525 -83.2286 134° Southeast 264 304 23,000  Level Jacksonville Center
Sat 09:41:15 AM 30.7089 -83.1536 124° Southeast 264 304 23,000  Level Jacksonville Center
Sat 09:42:15 AM 30.6653 -83.0786 124° Southeast 274 315 23,000  Level Jacksonville Center
Sat 09:43:15 AM 30.6236 -83.0036 123° Southeast 279 321 23,000  Level Jacksonville Center
Sat 09:44:15 AM 30.5547 -82.9650 154° Southeast 264 304 23,000  Level Jacksonville Center
Sat 09:45:15 AM 30.4858 -82.9286 156° South 264 304 23,000  Level Jacksonville Center
Sat 09:46:15 AM 30.4147 -82.8878 154° Southeast 269 310 23,000  Level Jacksonville Center
Sat 09:47:15 AM 30.3458 -82.8517 156° South 269 310 23,000  Level Jacksonville Center
Sat 09:48:15 AM 30.2769 -82.8133 154° Southeast 274 315 23,000  Level Jacksonville Center
Sat 09:49:16 AM 30.2081 -82.7747 154° Southeast 274 315 23,000  Level Jacksonville Center
Sat 09:50:15 AM 30.1411 -82.7389 155° Southeast 279 321 23,000  Level Jacksonville Center
Sat 09:51:15 AM 30.0700 -82.7006 155° Southeast 279 321 23,000 -200 Level Jacksonville Center
Sat 09:52:15 AM 29.9950 -82.6647 158° South 279 321 22,600 -800 Descending Jacksonville Center
Sat 09:53:15 AM 29.9197 -82.6217 154° Southeast 290 334 21,400 -1,200 Descending Jacksonville Center
Sat 09:54:15 AM 29.8444 -82.5814 155° Southeast 296 341 20,200 -1,200 Descending Jacksonville Center
Sat 09:55:15 AM 29.7692 -82.5433 156° South 296 341 19,000 -1,150 Descending Jacksonville Center
Sat 09:56:15 AM 29.6897 -82.5006 155° Southeast 296 341 17,900 -1,000 Descending Jacksonville Center
Sat 09:57:15 AM 29.6144 -82.4603 155° Southeast 296 341 17,000 -1,000 Descending Jacksonville Center
Sat 09:58:15 AM 29.5392 -82.4175 154° Southeast 296 341 15,900 -1,050 Descending Jacksonville Center
Sat 09:59:15 AM 29.4597 -82.3797 158° South 296 341 14,900 -1,050 Descending Jacksonville Center
Sat 10:00:15 AM 29.3842 -82.3372 154° Southeast 296 341 13,800 -1,118 Descending Jacksonville Center
Sat 10:00:57 AM 29.3319 -82.3136 158° South 295 339 13,000 -1,000 Descending Jacksonville Center
Sat 10:01:15 AM 29.3111 -82.2972 146° Southeast 296 341 12,800 -1,068 Descending Jacksonville Center
Sat 10:02:10 AM 29.2419 -82.2642 157° South 291 335 11,700 -1,100 Descending Jacksonville Center
Sat 10:03:15 AM 29.1667 -82.2194 153° Southeast 296 341 10,600 -984 Descending Jacksonville Center
Sat 10:04:12 AM 29.1244 -82.1558 127° Southeast 272 313 9,700 -950 Descending Jacksonville Center
Sat 10:05:15 AM 29.0739 -82.0825 128° Southeast 272 313 8,700 -878 Descending Jacksonville Center
Sat 10:06:15 AM 29.0275 -82.0139 128° Southeast 272 313 7,900 -800 Descending Jacksonville Center
Sat 10:07:15 AM 28.9792 -81.9550 133° Southeast 261 300 7,100 -450 Descending Jacksonville Center
Sat 10:08:15 AM 28.9411 -81.8936 125° Southeast 261 300 7,000 -50 Descending Jacksonville Center
Sat 10:09:15 AM 28.8989 -81.8347 129° Southeast 248 285 7,000  Level Jacksonville Center
Sat 10:10:16 AM 28.8525 -81.7689 129° Southeast 248 285 7,000 -94 Level Jacksonville Center
Sat 10:11:22 AM 28.8000 -81.7167 139° Southeast 242 278 6,800 -567 Descending Orlando TRACON
Sat 10:12:23 AM 28.7333 -81.6833 156° South 231 266 5,800 -942 Descending Orlando TRACON
Sat 10:13:23 AM 28.6833 -81.6500 150° Southeast 221 254 4,900 -857 Descending Orlando TRACON
Sat 10:14:29 AM 28.6167 -81.6000 147° Southeast 224 258 4,000 -429 Descending Orlando TRACON
Sat 10:15:29 AM 28.5667 -81.5667 150° Southeast 222 255 4,000 -476 Level Orlando TRACON
Sat 10:16:35 AM 28.5000 -81.5333 156° South 219 252 3,000 -952 Descending Orlando TRACON
Sat 10:17:35 AM 28.4667 -81.5000 139° Southeast 202 232 2,000 -496 Descending Orlando TRACON
Sat 10:18:36 AM 28.5000 -81.4500 53° Northeast 147 169 2,000 -248 Level Orlando TRACON
Sat 10:19:36 AM 28.5167 -81.4167 60° Northeast 134 154 1,500 -550 Descending Orlando TRACON
Sat 10:20:36 AM 28.5333 -81.3833 60° Northeast 122 140 900 -595 Descending Orlando TRACON
Sat 10:21:37 AM 28.5333 -81.3500 90° East 108 124 300 -590 Descending Orlando TRACON
Sat 10:23:00 AM 28.5455 -81.3329 90° East  Level Estimated
Sat 10:30:00 AM 28.5455 -81.3329 90° East  Level Estimated
Sat 10:31:00 AM 28.5455 -81.3329 90° East  Level Estimated
Sat 10:32:00 AM 28.5455 -81.3329 90° East  Level Estimated
Sat 10:33:00 AM 28.5455 -81.3329 90° East  Level Estimated

Login

Don't have an account? Register now (free) for customized features, flight alerts, and more!